Bengaluru International Airport
VOBL : now visible

Airfield :











YOU CAN JOIN US ON...

 
LOGIN :

Register | Disclaimer

   EN    FR    IT 

 









Legend :    VFR   Marginal VFR   IFR   Intensive IFR   Very Intensive IFR
Visi :
Ceiling :
>= 8 km
>= 3000ft
5 to 8 km
1000 to 3000 ft
1500m to 5 km
500 to 1000 ft
800 to 1500m
200 to 500 ft
< 800m
< 200 ft
Symbols :   Thunderstorms  Fog  Heavy snow  Heavy precipitations  Wind > 20 kt







- Airport Elevation : 0 ft
- IATA code : BLR


VOBL - Bengaluru International

CURRENT METAR :
  • 251530Z 26014KT 6000 SCT012 SCT080 27/19 Q1013 NOSIG

EXPIRED METARs :
  • 251500Z 26011KT 6000 SCT012 SCT080 28/18 Q1012 NOSIG
  • 251430Z 24008KT 6000 SCT012 SCT080 28/17 Q1012 NOSIG
  • 251400Z 24008KT 6000 SCT012 SCT080 28/17 Q1012 NOSIG
  • 251330Z 23008KT 6000 SCT012 29/16 Q1011 NOSIG
  • 251300Z 23010KT 6000 SCT012 29/16 Q1011 NOSIG

TAF TAF VOBL
Valid from the 25 at 15:00 until the 26 at 00:00 UTC


251400Z 2515/2524 27010KT 6000 SCT012
TEMPO 2515/2518 4000 RA DZ SCT010 SCT015 BKN080
VOMF FIR / Asia



MET'MAP, your aeronautical weather chart ! - Copyright ORBIFLY December 2007 - Disclaimer

ORBIFLY MET'MAP TEAM :

Programming & Development : Alexandra Zaïnal
Concept & Development : Baudouin d'Aumeries
Co-Development & Prog : Marc-Olivier Méhu
Technical & hardware support : Manuel Goepfert

Contact : metmap@orbifly.com




SOURCES & CREDITS :

   NOAA       Earth
Advisory